sensor_id;sensor_type;location;lat;lon;timestamp;pressure;altitude;pressure_sealevel;temperature
42197;BMP280;27866;48.146;17.098;2022-09-03T00:01:34;99598.09;;;18.14
42197;BMP280;27866;48.146;17.098;2022-09-03T00:15:12;99614.59;;;18.07
42197;BMP280;27866;48.146;17.098;2022-09-03T00:19:33;99612.25;;;18.04
42197;BMP280;27866;48.146;17.098;2022-09-03T00:23:47;99609.34;;;18.07
42197;BMP280;27866;48.146;17.098;2022-09-03T00:28:01;99602.84;;;18.11
42197;BMP280;27866;48.146;17.098;2022-09-03T00:33:03;99605.44;;;18.11
42197;BMP280;27866;48.146;17.098;2022-09-03T00:37:17;99612.94;;;18.06
42197;BMP280;27866;48.146;17.098;2022-09-03T01:00:12;99611.19;;;17.90
42197;BMP280;27866;48.146;17.098;2022-09-03T01:05:04;99615.75;;;17.88
42197;BMP280;27866;48.146;17.098;2022-09-03T01:10:11;99613.91;;;17.81
42197;BMP280;27866;48.146;17.098;2022-09-03T01:14:44;99626.47;;;17.77
42197;BMP280;27866;48.146;17.098;2022-09-03T01:19:26;99625.94;;;17.74
42197;BMP280;27866;48.146;17.098;2022-09-03T01:28:53;99629.09;;;17.60
42197;BMP280;27866;48.146;17.098;2022-09-03T01:33:51;99630.28;;;17.49
42197;BMP280;27866;48.146;17.098;2022-09-03T01:38:43;99627.75;;;17.40
42197;BMP280;27866;48.146;17.098;2022-09-03T01:52:13;99627.06;;;17.21
42197;BMP280;27866;48.146;17.098;2022-09-03T02:01:35;99623.59;;;17.20
42197;BMP280;27866;48.146;17.098;2022-09-03T02:05:47;99626.22;;;17.20
42197;BMP280;27866;48.146;17.098;2022-09-03T02:10:05;99627.56;;;17.24
42197;BMP280;27866;48.146;17.098;2022-09-03T02:14:17;99628.41;;;17.25
42197;BMP280;27866;48.146;17.098;2022-09-03T02:18:32;99622.50;;;17.23
42197;BMP280;27866;48.146;17.098;2022-09-03T02:22:48;99618.66;;;17.17
42197;BMP280;27866;48.146;17.098;2022-09-03T02:26:59;99629.13;;;17.17
42197;BMP280;27866;48.146;17.098;2022-09-03T02:31:11;99643.19;;;17.16
42197;BMP280;27866;48.146;17.098;2022-09-03T02:35:22;99642.81;;;17.11
42197;BMP280;27866;48.146;17.098;2022-09-03T02:39:34;99634.13;;;17.11
42197;BMP280;27866;48.146;17.098;2022-09-03T02:48:08;99638.44;;;17.03
42197;BMP280;27866;48.146;17.098;2022-09-03T02:52:20;99625.22;;;17.04
42197;BMP280;27866;48.146;17.098;2022-09-03T02:56:31;99626.88;;;17.05
42197;BMP280;27866;48.146;17.098;2022-09-03T03:00:43;99628.81;;;17.03
42197;BMP280;27866;48.146;17.098;2022-09-03T03:04:54;99636.00;;;17.01
42197;BMP280;27866;48.146;17.098;2022-09-03T03:09:06;99635.84;;;17.03
42197;BMP280;27866;48.146;17.098;2022-09-03T03:13:18;99632.84;;;16.98
42197;BMP280;27866;48.146;17.098;2022-09-03T03:17:30;99631.50;;;16.94
42197;BMP280;27866;48.146;17.098;2022-09-03T03:21:41;99642.63;;;16.96
42197;BMP280;27866;48.146;17.098;2022-09-03T03:25:53;99639.56;;;17.00
42197;BMP280;27866;48.146;17.098;2022-09-03T03:30:11;99649.31;;;17.08
42197;BMP280;27866;48.146;17.098;2022-09-03T03:34:22;99650.69;;;17.11
42197;BMP280;27866;48.146;17.098;2022-09-03T03:38:35;99650.50;;;17.13
42197;BMP280;27866;48.146;17.098;2022-09-03T03:42:47;99644.59;;;17.11
42197;BMP280;27866;48.146;17.098;2022-09-03T03:47:01;99648.34;;;17.09
42197;BMP280;27866;48.146;17.098;2022-09-03T03:51:12;99640.72;;;17.15
42197;BMP280;27866;48.146;17.098;2022-09-03T03:55:24;99640.94;;;17.21
42197;BMP280;27866;48.146;17.098;2022-09-03T03:59:35;99640.94;;;17.21
42197;BMP280;27866;48.146;17.098;2022-09-03T04:03:47;99640.06;;;17.30
42197;BMP280;27866;48.146;17.098;2022-09-03T04:08:00;99638.13;;;17.32
42197;BMP280;27866;48.146;17.098;2022-09-03T04:12:12;99649.56;;;17.31
42197;BMP280;27866;48.146;17.098;2022-09-03T04:16:26;99657.66;;;17.37
42197;BMP280;27866;48.146;17.098;2022-09-03T04:20:37;99646.88;;;17.40
42197;BMP280;27866;48.146;17.098;2022-09-03T04:24:49;99656.91;;;17.44
42197;BMP280;27866;48.146;17.098;2022-09-03T04:29:04;99665.44;;;17.46
42197;BMP280;27866;48.146;17.098;2022-09-03T04:33:17;99661.97;;;17.46
42197;BMP280;27866;48.146;17.098;2022-09-03T04:37:28;99670.81;;;17.45
42197;BMP280;27866;48.146;17.098;2022-09-03T04:41:39;99662.38;;;17.51
42197;BMP280;27866;48.146;17.098;2022-09-03T04:45:54;99676.94;;;17.53
42197;BMP280;27866;48.146;17.098;2022-09-03T04:50:06;99686.97;;;17.57
42197;BMP280;27866;48.146;17.098;2022-09-03T04:54:18;99690.13;;;17.61
42197;BMP280;27866;48.146;17.098;2022-09-03T04:58:29;99683.25;;;17.60
42197;BMP280;27866;48.146;17.098;2022-09-03T05:02:41;99691.56;;;17.72
42197;BMP280;27866;48.146;17.098;2022-09-03T05:06:52;99697.72;;;17.81
42197;BMP280;27866;48.146;17.098;2022-09-03T05:11:05;99700.56;;;17.87
42197;BMP280;27866;48.146;17.098;2022-09-03T05:15:17;99684.78;;;17.96
42197;BMP280;27866;48.146;17.098;2022-09-03T05:19:28;99682.72;;;18.07
42197;BMP280;27866;48.146;17.098;2022-09-03T05:23:43;99690.19;;;18.19
42197;BMP280;27866;48.146;17.098;2022-09-03T05:27:54;99685.75;;;18.20
42197;BMP280;27866;48.146;17.098;2022-09-03T05:32:06;99692.88;;;18.27
42197;BMP280;27866;48.146;17.098;2022-09-03T05:36:21;99676.53;;;18.33
42197;BMP280;27866;48.146;17.098;2022-09-03T05:40:33;99692.75;;;18.36
42197;BMP280;27866;48.146;17.098;2022-09-03T05:44:44;99694.66;;;18.43
42197;BMP280;27866;48.146;17.098;2022-09-03T05:48:58;99695.19;;;18.55
42197;BMP280;27866;48.146;17.098;2022-09-03T05:53:09;99695.34;;;18.70
42197;BMP280;27866;48.146;17.098;2022-09-03T05:57:21;99692.88;;;18.76
42197;BMP280;27866;48.146;17.098;2022-09-03T06:01:39;99695.72;;;18.83
42197;BMP280;27866;48.146;17.098;2022-09-03T06:05:53;99695.31;;;19.02
42197;BMP280;27866;48.146;17.098;2022-09-03T06:10:05;99694.59;;;19.25
42197;BMP280;27866;48.146;17.098;2022-09-03T06:14:18;99701.31;;;22.09
42197;BMP280;27866;48.146;17.098;2022-09-03T06:18:30;99681.25;;;25.56
42197;BMP280;27866;48.146;17.098;2022-09-03T06:22:46;99685.66;;;22.65
42197;BMP280;27866;48.146;17.098;2022-09-03T06:26:58;99680.13;;;21.15
42197;BMP280;27866;48.146;17.098;2022-09-03T06:31:12;99679.66;;;22.00
42197;BMP280;27866;48.146;17.098;2022-09-03T06:35:24;99680.16;;;21.07
42197;BMP280;27866;48.146;17.098;2022-09-03T06:39:36;99670.22;;;20.79
42197;BMP280;27866;48.146;17.098;2022-09-03T06:43:47;99672.38;;;20.68
42197;BMP280;27866;48.146;17.098;2022-09-03T06:47:59;99669.50;;;20.93
42197;BMP280;27866;48.146;17.098;2022-09-03T06:52:10;99676.75;;;20.91
42197;BMP280;27866;48.146;17.098;2022-09-03T06:56:24;99679.59;;;21.56
42197;BMP280;27866;48.146;17.098;2022-09-03T07:00:38;99673.09;;;21.37
42197;BMP280;27866;48.146;17.098;2022-09-03T07:04:49;99675.38;;;23.40
42197;BMP280;27866;48.146;17.098;2022-09-03T07:09:00;99665.44;;;23.77
42197;BMP280;27866;48.146;17.098;2022-09-03T07:13:13;99668.44;;;23.39
42197;BMP280;27866;48.146;17.098;2022-09-03T07:17:24;99667.19;;;26.27
42197;BMP280;27866;48.146;17.098;2022-09-03T07:21:36;99669.28;;;24.62
42197;BMP280;27866;48.146;17.098;2022-09-03T07:26:00;99677.66;;;22.87
42197;BMP280;27866;48.146;17.098;2022-09-03T07:30:12;99674.56;;;22.34
42197;BMP280;27866;48.146;17.098;2022-09-03T07:34:23;99678.56;;;22.66
42197;BMP280;27866;48.146;17.098;2022-09-03T07:38:36;99676.28;;;22.27
42197;BMP280;27866;48.146;17.098;2022-09-03T07:42:47;99683.38;;;22.05
42197;BMP280;27866;48.146;17.098;2022-09-03T07:46:59;99687.44;;;22.15
42197;BMP280;27866;48.146;17.098;2022-09-03T07:51:10;99683.31;;;22.70
42197;BMP280;27866;48.146;17.098;2022-09-03T07:55:23;99686.41;;;23.30
42197;BMP280;27866;48.146;17.098;2022-09-03T07:59:34;99688.81;;;23.59
42197;BMP280;27866;48.146;17.098;2022-09-03T08:03:50;99680.56;;;23.34
42197;BMP280;27866;48.146;17.098;2022-09-03T08:08:05;99679.16;;;23.18
42197;BMP280;27866;48.146;17.098;2022-09-03T08:12:18;99669.38;;;23.18
42197;BMP280;27866;48.146;17.098;2022-09-03T08:16:38;99664.97;;;23.39
42197;BMP280;27866;48.146;17.098;2022-09-03T08:20:52;99672.47;;;23.36
42197;BMP280;27866;48.146;17.098;2022-09-03T08:25:03;99674.41;;;23.27
42197;BMP280;27866;48.146;17.098;2022-09-03T08:29:15;99683.00;;;25.83
42197;BMP280;27866;48.146;17.098;2022-09-03T08:33:26;99676.09;;;25.94
42197;BMP280;27866;48.146;17.098;2022-09-03T08:37:52;99663.28;;;24.74
42197;BMP280;27866;48.146;17.098;2022-09-03T08:42:18;99667.06;;;25.25
42197;BMP280;27866;48.146;17.098;2022-09-03T08:51:24;99656.75;;;35.54
42197;BMP280;27866;48.146;17.098;2022-09-03T08:55:59;99659.31;;;30.99
42197;BMP280;27866;48.146;17.098;2022-09-03T09:00:13;99645.19;;;29.68
42197;BMP280;27866;48.146;17.098;2022-09-03T09:05:08;99638.50;;;26.85
42197;BMP280;27866;48.146;17.098;2022-09-03T09:13:55;99643.84;;;26.22
42197;BMP280;27866;48.146;17.098;2022-09-03T09:23:12;99629.59;;;26.36
42197;BMP280;27866;48.146;17.098;2022-09-03T09:27:24;99634.03;;;26.79
42197;BMP280;27866;48.146;17.098;2022-09-03T09:31:37;99630.19;;;26.38
42197;BMP280;27866;48.146;17.098;2022-09-03T09:35:49;99632.41;;;26.91
42197;BMP280;27866;48.146;17.098;2022-09-03T09:40:01;99624.91;;;27.24
42197;BMP280;27866;48.146;17.098;2022-09-03T09:44:20;99614.97;;;27.07
42197;BMP280;27866;48.146;17.098;2022-09-03T09:48:37;99620.72;;;27.04
42197;BMP280;27866;48.146;17.098;2022-09-03T09:53:02;99634.16;;;27.64
42197;BMP280;27866;48.146;17.098;2022-09-03T09:57:21;99640.56;;;30.04
42197;BMP280;27866;48.146;17.098;2022-09-03T10:01:36;99626.00;;;29.89
42197;BMP280;27866;48.146;17.098;2022-09-03T10:06:06;99616.72;;;28.93
42197;BMP280;27866;48.146;17.098;2022-09-03T10:10:44;99619.91;;;29.71
42197;BMP280;27866;48.146;17.098;2022-09-03T10:15:34;99607.72;;;28.94
42197;BMP280;27866;48.146;17.098;2022-09-03T10:25:06;99622.91;;;33.96
42197;BMP280;27866;48.146;17.098;2022-09-03T10:29:22;99610.59;;;39.53
42197;BMP280;27866;48.146;17.098;2022-09-03T10:34:13;99616.56;;;40.80
42197;BMP280;27866;48.146;17.098;2022-09-03T10:38:31;99610.44;;;41.58
42197;BMP280;27866;48.146;17.098;2022-09-03T10:57:39;99591.25;;;46.86
42197;BMP280;27866;48.146;17.098;2022-09-03T11:06:27;99572.22;;;45.42
42197;BMP280;27866;48.146;17.098;2022-09-03T11:10:53;99578.47;;;45.06
42197;BMP280;27866;48.146;17.098;2022-09-03T11:15:14;99577.53;;;45.03
42197;BMP280;27866;48.146;17.098;2022-09-03T11:19:47;99558.00;;;45.57
42197;BMP280;27866;48.146;17.098;2022-09-03T11:24:13;99576.00;;;42.95
42197;BMP280;27866;48.146;17.098;2022-09-03T11:28:53;99562.00;;;45.59
42197;BMP280;27866;48.146;17.098;2022-09-03T11:33:09;99565.19;;;46.92
42197;BMP280;27866;48.146;17.098;2022-09-03T11:37:29;99563.34;;;46.21
42197;BMP280;27866;48.146;17.098;2022-09-03T11:41:41;99568.28;;;44.71
42197;BMP280;27866;48.146;17.098;2022-09-03T11:46:13;99554.34;;;45.17
42197;BMP280;27866;48.146;17.098;2022-09-03T11:50:37;99553.38;;;40.26
42197;BMP280;27866;48.146;17.098;2022-09-03T11:54:48;99559.56;;;40.76
42197;BMP280;27866;48.146;17.098;2022-09-03T12:08:27;99547.22;;;40.39
42197;BMP280;27866;48.146;17.098;2022-09-03T12:21:42;99531.19;;;45.06
42197;BMP280;27866;48.146;17.098;2022-09-03T12:26:08;99541.34;;;44.03
42197;BMP280;27866;48.146;17.098;2022-09-03T12:30:24;99535.72;;;45.66
42197;BMP280;27866;48.146;17.098;2022-09-03T12:34:36;99514.72;;;46.30
42197;BMP280;27866;48.146;17.098;2022-09-03T12:38:48;99513.00;;;39.89
42197;BMP280;27866;48.146;17.098;2022-09-03T12:43:28;99526.44;;;41.78
42197;BMP280;27866;48.146;17.098;2022-09-03T12:47:40;99519.47;;;43.71
42197;BMP280;27866;48.146;17.098;2022-09-03T12:52:05;99513.03;;;39.08
42197;BMP280;27866;48.146;17.098;2022-09-03T12:56:18;99509.53;;;40.50
42197;BMP280;27866;48.146;17.098;2022-09-03T13:00:33;99510.22;;;39.94
42197;BMP280;27866;48.146;17.098;2022-09-03T13:04:46;99498.03;;;39.56
42197;BMP280;27866;48.146;17.098;2022-09-03T13:09:03;99504.97;;;37.55
42197;BMP280;27866;48.146;17.098;2022-09-03T13:13:31;99498.38;;;36.00
42197;BMP280;27866;48.146;17.098;2022-09-03T13:18:18;99507.06;;;35.18
42197;BMP280;27866;48.146;17.098;2022-09-03T13:23:00;99495.81;;;35.35
42197;BMP280;27866;48.146;17.098;2022-09-03T13:31:54;99490.41;;;37.47
42197;BMP280;27866;48.146;17.098;2022-09-03T13:36:36;99496.06;;;38.25
42197;BMP280;27866;48.146;17.098;2022-09-03T13:41:32;99488.53;;;39.17
42197;BMP280;27866;48.146;17.098;2022-09-03T13:46:05;99488.44;;;39.04
42197;BMP280;27866;48.146;17.098;2022-09-03T13:50:20;99481.09;;;39.99
42197;BMP280;27866;48.146;17.098;2022-09-03T13:54:50;99479.25;;;40.70
42197;BMP280;27866;48.146;17.098;2022-09-03T13:59:49;99476.75;;;41.38
42197;BMP280;27866;48.146;17.098;2022-09-03T14:04:02;99477.47;;;41.31
42197;BMP280;27866;48.146;17.098;2022-09-03T14:13:47;99461.75;;;38.93
42197;BMP280;27866;48.146;17.098;2022-09-03T14:18:43;99468.66;;;36.48
42197;BMP280;27866;48.146;17.098;2022-09-03T14:23:06;99459.75;;;37.24
42197;BMP280;27866;48.146;17.098;2022-09-03T14:27:29;99467.09;;;37.09
42197;BMP280;27866;48.146;17.098;2022-09-03T14:32:26;99456.81;;;35.57
42197;BMP280;27866;48.146;17.098;2022-09-03T14:36:57;99465.50;;;34.45
42197;BMP280;27866;48.146;17.098;2022-09-03T14:50:56;99453.03;;;35.68
42197;BMP280;27866;48.146;17.098;2022-09-03T15:00:14;99447.69;;;33.69
42197;BMP280;27866;48.146;17.098;2022-09-03T15:13:46;99451.44;;;37.53
42197;BMP280;27866;48.146;17.098;2022-09-03T15:23:29;99464.22;;;35.02
42197;BMP280;27866;48.146;17.098;2022-09-03T15:28:24;99466.34;;;33.80
42197;BMP280;27866;48.146;17.098;2022-09-03T15:37:07;99446.84;;;32.91
42197;BMP280;27866;48.146;17.098;2022-09-03T15:41:39;99444.50;;;32.37
42197;BMP280;27866;48.146;17.098;2022-09-03T15:46:03;99449.50;;;31.97
42197;BMP280;27866;48.146;17.098;2022-09-03T15:50:36;99449.50;;;31.22
42197;BMP280;27866;48.146;17.098;2022-09-03T15:55:44;99456.19;;;30.70
42197;BMP280;27866;48.146;17.098;2022-09-03T16:00:09;99452.75;;;29.92
42197;BMP280;27866;48.146;17.098;2022-09-03T16:14:12;99469.00;;;28.83
42197;BMP280;27866;48.146;17.098;2022-09-03T16:45:16;99480.06;;;27.27
42197;BMP280;27866;48.146;17.098;2022-09-03T16:55:02;99476.38;;;26.98
42197;BMP280;27866;48.146;17.098;2022-09-03T17:00:00;99477.06;;;26.74
42197;BMP280;27866;48.146;17.098;2022-09-03T17:04:54;99484.06;;;26.57
42197;BMP280;27866;48.146;17.098;2022-09-03T17:42:04;99511.31;;;25.58
42197;BMP280;27866;48.146;17.098;2022-09-03T17:46:40;99521.31;;;25.50
42197;BMP280;27866;48.146;17.098;2022-09-03T17:51:04;99526.16;;;25.34
42197;BMP280;27866;48.146;17.098;2022-09-03T17:55:41;99520.03;;;25.21
42197;BMP280;27866;48.146;17.098;2022-09-03T18:00:05;99526.13;;;25.15
42197;BMP280;27866;48.146;17.098;2022-09-03T18:05:03;99527.88;;;25.02
42197;BMP280;27866;48.146;17.098;2022-09-03T18:18:46;99539.81;;;24.73
42197;BMP280;27866;48.146;17.098;2022-09-03T18:27:57;99548.34;;;24.68
42197;BMP280;27866;48.146;17.098;2022-09-03T18:32:29;99548.97;;;24.70
42197;BMP280;27866;48.146;17.098;2022-09-03T18:36:59;99554.47;;;24.75
42197;BMP280;27866;48.146;17.098;2022-09-03T18:46:50;99561.78;;;24.73
42197;BMP280;27866;48.146;17.098;2022-09-03T18:56:49;99561.25;;;24.90
42197;BMP280;27866;48.146;17.098;2022-09-03T19:01:39;99559.22;;;24.92
42197;BMP280;27866;48.146;17.098;2022-09-03T19:07:11;99561.09;;;24.92
42197;BMP280;27866;48.146;17.098;2022-09-03T19:17:18;99554.50;;;24.82
42197;BMP280;27866;48.146;17.098;2022-09-03T19:21:58;99556.91;;;24.77
42197;BMP280;27866;48.146;17.098;2022-09-03T19:27:23;99559.16;;;24.73
42197;BMP280;27866;48.146;17.098;2022-09-03T19:31:52;99552.44;;;24.71
42197;BMP280;27866;48.146;17.098;2022-09-03T19:36:46;99564.84;;;24.70
42197;BMP280;27866;48.146;17.098;2022-09-03T19:46:11;99576.78;;;24.54
42197;BMP280;27866;48.146;17.098;2022-09-03T19:50:57;99579.19;;;24.49
42197;BMP280;27866;48.146;17.098;2022-09-03T19:55:34;99585.63;;;24.40
42197;BMP280;27866;48.146;17.098;2022-09-03T20:00:07;99579.34;;;24.41
42197;BMP280;27866;48.146;17.098;2022-09-03T20:04:42;99583.97;;;24.39
42197;BMP280;27866;48.146;17.098;2022-09-03T20:09:16;99590.91;;;24.40
42197;BMP280;27866;48.146;17.098;2022-09-03T20:13:47;99594.25;;;24.49
42197;BMP280;27866;48.146;17.098;2022-09-03T20:18:58;99598.38;;;24.57
42197;BMP280;27866;48.146;17.098;2022-09-03T20:51:34;99614.81;;;24.80
42197;BMP280;27866;48.146;17.098;2022-09-03T20:55:50;99626.25;;;24.80
42197;BMP280;27866;48.146;17.098;2022-09-03T21:00:09;99626.41;;;24.79
42197;BMP280;27866;48.146;17.098;2022-09-03T21:18:58;99627.84;;;24.28
42197;BMP280;27866;48.146;17.098;2022-09-03T21:23:24;99629.34;;;24.10
42197;BMP280;27866;48.146;17.098;2022-09-03T21:27:44;99630.19;;;23.90
42197;BMP280;27866;48.146;17.098;2022-09-03T21:32:14;99633.00;;;23.68
42197;BMP280;27866;48.146;17.098;2022-09-03T21:36:34;99640.31;;;23.52
42197;BMP280;27866;48.146;17.098;2022-09-03T21:41:29;99641.38;;;23.37
42197;BMP280;27866;48.146;17.098;2022-09-03T21:45:53;99640.22;;;23.26
42197;BMP280;27866;48.146;17.098;2022-09-03T21:50:20;99637.63;;;23.12
42197;BMP280;27866;48.146;17.098;2022-09-03T21:54:33;99646.03;;;23.08
42197;BMP280;27866;48.146;17.098;2022-09-03T22:03:12;99654.44;;;23.11
42197;BMP280;27866;48.146;17.098;2022-09-03T22:39:45;99665.16;;;23.37
42197;BMP280;27866;48.146;17.098;2022-09-03T22:44:34;99673.91;;;23.38
42197;BMP280;27866;48.146;17.098;2022-09-03T22:54:26;99678.47;;;23.30
42197;BMP280;27866;48.146;17.098;2022-09-03T22:58:57;99697.91;;;23.23
42197;BMP280;27866;48.146;17.098;2022-09-03T23:03:20;99691.72;;;23.16
42197;BMP280;27866;48.146;17.098;2022-09-03T23:08:13;99697.00;;;23.16
42197;BMP280;27866;48.146;17.098;2022-09-03T23:16:54;99707.59;;;23.16
42197;BMP280;27866;48.146;17.098;2022-09-03T23:21:23;99707.28;;;23.11
42197;BMP280;27866;48.146;17.098;2022-09-03T23:25:42;99708.63;;;23.07
42197;BMP280;27866;48.146;17.098;2022-09-03T23:29:58;99716.28;;;23.02
42197;BMP280;27866;48.146;17.098;2022-09-03T23:34:11;99714.28;;;23.04
42197;BMP280;27866;48.146;17.098;2022-09-03T23:52:48;99713.91;;;23.07
